Leisure City, Florida
Current Conditions -  °F | °C
As of 1:58 AM on Saturday 25 Oct 2014 (Local Time) from KHST Reporting Station
Clear Clear  
Wind Chill: 71°   Ceiling: Unl
Heat Index: 71°   Visibility: 10mi
Dew Point: 66°   Wind: 10mph
Humidity: 85%   Direction: 320°NW
Pressure: 29.86"   Gusts: NA
Location:  25.5°N, 80.43°W
Report Text: KHST 250558Z AUTO 32009KT 10SM CLR 22/19 A2986 RMK AO2 SLP115 60001 T02160190 10240 20216 50003
Loading
Personal Weather Stations






























Interactive Weather Map
Tropical Storm Tracking
New forecast layout! Learn more

10-Day Weather Forecast

Advertisements
Track Severe Weather on mobile